sensor_id;sensor_type;location;lat;lon;timestamp;P1;durP1;ratioP1;P2;durP2;ratioP2
6249;SDS011;3158;52.148;11.568;2022-12-05T00:04:17;51.20;;;13.55;;
6249;SDS011;3158;52.148;11.568;2022-12-05T00:09:18;57.25;;;14.35;;
6249;SDS011;3158;52.148;11.568;2022-12-05T00:14:20;46.15;;;15.15;;
6249;SDS011;3158;52.148;11.568;2022-12-05T00:19:21;60.40;;;15.63;;
6249;SDS011;3158;52.148;11.568;2022-12-05T00:24:22;48.90;;;13.98;;
6249;SDS011;3158;52.148;11.568;2022-12-05T00:29:23;53.17;;;15.80;;
6249;SDS011;3158;52.148;11.568;2022-12-05T00:34:24;48.70;;;14.40;;
6249;SDS011;3158;52.148;11.568;2022-12-05T00:39:25;38.72;;;14.32;;
6249;SDS011;3158;52.148;11.568;2022-12-05T00:44:26;47.75;;;13.48;;
6249;SDS011;3158;52.148;11.568;2022-12-05T00:49:27;54.38;;;14.70;;
6249;SDS011;3158;52.148;11.568;2022-12-05T00:54:28;45.08;;;14.57;;
6249;SDS011;3158;52.148;11.568;2022-12-05T00:59:29;63.83;;;13.60;;
6249;SDS011;3158;52.148;11.568;2022-12-05T01:04:31;36.92;;;12.88;;
6249;SDS011;3158;52.148;11.568;2022-12-05T01:09:32;32.35;;;12.38;;
6249;SDS011;3158;52.148;11.568;2022-12-05T01:14:33;33.60;;;12.32;;
6249;SDS011;3158;52.148;11.568;2022-12-05T01:19:34;45.40;;;13.60;;
6249;SDS011;3158;52.148;11.568;2022-12-05T01:24:35;47.55;;;12.65;;
6249;SDS011;3158;52.148;11.568;2022-12-05T01:29:36;37.53;;;12.30;;
6249;SDS011;3158;52.148;11.568;2022-12-05T01:34:37;48.78;;;13.07;;
6249;SDS011;3158;52.148;11.568;2022-12-05T01:39:38;48.65;;;13.20;;
6249;SDS011;3158;52.148;11.568;2022-12-05T01:49:43;41.88;;;12.25;;
6249;SDS011;3158;52.148;11.568;2022-12-05T01:54:45;51.30;;;13.00;;
6249;SDS011;3158;52.148;11.568;2022-12-05T01:59:48;47.65;;;13.40;;
6249;SDS011;3158;52.148;11.568;2022-12-05T02:04:59;31.17;;;11.65;;
6249;SDS011;3158;52.148;11.568;2022-12-05T02:10:01;39.70;;;11.52;;
6249;SDS011;3158;52.148;11.568;2022-12-05T02:20:33;55.05;;;12.75;;
6249;SDS011;3158;52.148;11.568;2022-12-05T02:25:50;39.65;;;12.88;;
6249;SDS011;3158;52.148;11.568;2022-12-05T02:31:17;48.85;;;13.10;;
6249;SDS011;3158;52.148;11.568;2022-12-05T02:36:31;38.50;;;13.75;;
6249;SDS011;3158;52.148;11.568;2022-12-05T02:46:48;46.85;;;12.10;;
6249;SDS011;3158;52.148;11.568;2022-12-05T02:51:52;29.25;;;10.70;;
6249;SDS011;3158;52.148;11.568;2022-12-05T02:56:55;33.22;;;11.18;;
6249;SDS011;3158;52.148;11.568;2022-12-05T03:01:57;29.75;;;9.85;;
6249;SDS011;3158;52.148;11.568;2022-12-05T03:07:06;26.92;;;9.93;;
6249;SDS011;3158;52.148;11.568;2022-12-05T03:17:13;17.80;;;8.63;;
6249;SDS011;3158;52.148;11.568;2022-12-05T03:22:21;19.77;;;7.70;;
6249;SDS011;3158;52.148;11.568;2022-12-05T03:37:47;19.40;;;7.55;;
6249;SDS011;3158;52.148;11.568;2022-12-05T03:43:00;18.88;;;7.43;;
6249;SDS011;3158;52.148;11.568;2022-12-05T03:48:15;15.40;;;7.00;;
6249;SDS011;3158;52.148;11.568;2022-12-05T03:53:21;14.50;;;6.80;;
6249;SDS011;3158;52.148;11.568;2022-12-05T03:58:30;15.35;;;7.32;;
6249;SDS011;3158;52.148;11.568;2022-12-05T04:03:54;12.52;;;6.57;;
6249;SDS011;3158;52.148;11.568;2022-12-05T04:08:58;15.00;;;6.85;;
6249;SDS011;3158;52.148;11.568;2022-12-05T04:14:05;14.27;;;6.75;;
6249;SDS011;3158;52.148;11.568;2022-12-05T04:24:10;15.60;;;7.07;;
6249;SDS011;3158;52.148;11.568;2022-12-05T04:29:31;10.32;;;6.00;;
6249;SDS011;3158;52.148;11.568;2022-12-05T04:34:34;11.18;;;5.68;;
6249;SDS011;3158;52.148;11.568;2022-12-05T04:39:43;11.20;;;5.57;;
6249;SDS011;3158;52.148;11.568;2022-12-05T04:44:47;13.55;;;6.00;;
6249;SDS011;3158;52.148;11.568;2022-12-05T04:49:49;10.82;;;6.15;;
6249;SDS011;3158;52.148;11.568;2022-12-05T04:54:53;12.48;;;5.85;;
6249;SDS011;3158;52.148;11.568;2022-12-05T04:59:56;13.30;;;6.15;;
6249;SDS011;3158;52.148;11.568;2022-12-05T05:04:57;15.90;;;5.43;;
6249;SDS011;3158;52.148;11.568;2022-12-05T05:10:00;8.80;;;5.80;;
6249;SDS011;3158;52.148;11.568;2022-12-05T05:15:01;8.32;;;5.32;;
6249;SDS011;3158;52.148;11.568;2022-12-05T05:20:03;13.48;;;6.50;;
6249;SDS011;3158;52.148;11.568;2022-12-05T05:25:23;11.70;;;5.65;;
6249;SDS011;3158;52.148;11.568;2022-12-05T05:30:25;11.50;;;5.43;;
6249;SDS011;3158;52.148;11.568;2022-12-05T05:35:26;11.23;;;6.28;;
6249;SDS011;3158;52.148;11.568;2022-12-05T05:40:27;13.35;;;6.15;;
6249;SDS011;3158;52.148;11.568;2022-12-05T05:45:30;13.60;;;5.45;;
6249;SDS011;3158;52.148;11.568;2022-12-05T05:50:31;10.13;;;5.25;;
6249;SDS011;3158;52.148;11.568;2022-12-05T05:55:32;13.65;;;5.72;;
6249;SDS011;3158;52.148;11.568;2022-12-05T06:00:33;10.52;;;5.35;;
6249;SDS011;3158;52.148;11.568;2022-12-05T06:05:34;8.20;;;5.13;;
6249;SDS011;3158;52.148;11.568;2022-12-05T06:10:37;8.75;;;5.60;;
6249;SDS011;3158;52.148;11.568;2022-12-05T06:15:38;11.27;;;5.28;;
6249;SDS011;3158;52.148;11.568;2022-12-05T06:20:39;7.97;;;5.15;;
6249;SDS011;3158;52.148;11.568;2022-12-05T06:25:45;10.27;;;5.57;;
6249;SDS011;3158;52.148;11.568;2022-12-05T06:30:47;10.40;;;4.75;;
6249;SDS011;3158;52.148;11.568;2022-12-05T06:35:48;6.70;;;4.10;;
6249;SDS011;3158;52.148;11.568;2022-12-05T06:40:49;8.98;;;5.25;;
6249;SDS011;3158;52.148;11.568;2022-12-05T06:45:50;8.45;;;5.13;;
6249;SDS011;3158;52.148;11.568;2022-12-05T06:50:51;11.15;;;5.97;;
6249;SDS011;3158;52.148;11.568;2022-12-05T07:00:56;12.15;;;5.25;;
6249;SDS011;3158;52.148;11.568;2022-12-05T07:06:16;7.13;;;4.68;;
6249;SDS011;3158;52.148;11.568;2022-12-05T07:11:18;11.52;;;5.03;;
6249;SDS011;3158;52.148;11.568;2022-12-05T07:16:19;10.50;;;5.53;;
6249;SDS011;3158;52.148;11.568;2022-12-05T07:21:20;9.73;;;5.45;;
6249;SDS011;3158;52.148;11.568;2022-12-05T07:26:22;7.53;;;4.95;;
6249;SDS011;3158;52.148;11.568;2022-12-05T07:31:23;6.10;;;4.75;;
6249;SDS011;3158;52.148;11.568;2022-12-05T07:36:25;6.93;;;4.82;;
6249;SDS011;3158;52.148;11.568;2022-12-05T07:41:30;6.85;;;4.72;;
6249;SDS011;3158;52.148;11.568;2022-12-05T07:46:40;9.50;;;4.43;;
6249;SDS011;3158;52.148;11.568;2022-12-05T07:51:41;6.53;;;4.97;;
6249;SDS011;3158;52.148;11.568;2022-12-05T07:56:42;7.28;;;5.13;;
6249;SDS011;3158;52.148;11.568;2022-12-05T08:01:43;7.85;;;4.35;;
6249;SDS011;3158;52.148;11.568;2022-12-05T08:06:44;6.80;;;4.53;;
6249;SDS011;3158;52.148;11.568;2022-12-05T08:11:45;8.50;;;4.65;;
6249;SDS011;3158;52.148;11.568;2022-12-05T08:16:46;13.05;;;5.68;;
6249;SDS011;3158;52.148;11.568;2022-12-05T08:21:47;10.30;;;6.13;;
6249;SDS011;3158;52.148;11.568;2022-12-05T08:26:48;7.85;;;4.68;;
6249;SDS011;3158;52.148;11.568;2022-12-05T08:31:49;8.75;;;4.40;;
6249;SDS011;3158;52.148;11.568;2022-12-05T08:36:51;7.70;;;5.30;;
6249;SDS011;3158;52.148;11.568;2022-12-05T08:41:52;8.80;;;4.88;;
6249;SDS011;3158;52.148;11.568;2022-12-05T08:46:53;10.77;;;5.47;;
6249;SDS011;3158;52.148;11.568;2022-12-05T08:51:54;9.82;;;5.05;;
6249;SDS011;3158;52.148;11.568;2022-12-05T08:56:55;10.98;;;4.88;;
6249;SDS011;3158;52.148;11.568;2022-12-05T09:01:58;12.00;;;4.85;;
6249;SDS011;3158;52.148;11.568;2022-12-05T09:07:00;7.28;;;5.03;;
6249;SDS011;3158;52.148;11.568;2022-12-05T09:12:02;6.38;;;4.75;;
6249;SDS011;3158;52.148;11.568;2022-12-05T09:17:03;9.25;;;6.13;;
6249;SDS011;3158;52.148;11.568;2022-12-05T09:22:04;7.72;;;4.13;;
6249;SDS011;3158;52.148;11.568;2022-12-05T09:27:05;9.85;;;6.15;;
6249;SDS011;3158;52.148;11.568;2022-12-05T09:32:06;8.18;;;5.43;;
6249;SDS011;3158;52.148;11.568;2022-12-05T09:37:07;11.57;;;5.50;;
6249;SDS011;3158;52.148;11.568;2022-12-05T09:42:12;10.00;;;5.13;;
6249;SDS011;3158;52.148;11.568;2022-12-05T09:52:32;10.95;;;5.18;;
6249;SDS011;3158;52.148;11.568;2022-12-05T09:57:36;9.80;;;5.38;;
6249;SDS011;3158;52.148;11.568;2022-12-05T10:17:57;7.78;;;5.80;;
6249;SDS011;3158;52.148;11.568;2022-12-05T10:23:02;9.25;;;6.15;;
6249;SDS011;3158;52.148;11.568;2022-12-05T10:28:05;18.33;;;7.20;;
6249;SDS011;3158;52.148;11.568;2022-12-05T10:33:14;14.88;;;6.68;;
6249;SDS011;3158;52.148;11.568;2022-12-05T10:43:22;15.73;;;7.95;;
6249;SDS011;3158;52.148;11.568;2022-12-05T10:48:24;16.77;;;6.72;;
6249;SDS011;3158;52.148;11.568;2022-12-05T10:53:26;15.73;;;8.25;;
6249;SDS011;3158;52.148;11.568;2022-12-05T10:58:28;18.35;;;7.75;;
6249;SDS011;3158;52.148;11.568;2022-12-05T11:03:30;15.82;;;7.65;;
6249;SDS011;3158;52.148;11.568;2022-12-05T11:08:32;15.35;;;7.05;;
6249;SDS011;3158;52.148;11.568;2022-12-05T11:13:34;12.85;;;7.32;;
6249;SDS011;3158;52.148;11.568;2022-12-05T11:18:35;17.55;;;9.10;;
6249;SDS011;3158;52.148;11.568;2022-12-05T11:23:36;20.33;;;7.88;;
6249;SDS011;3158;52.148;11.568;2022-12-05T11:28:38;11.05;;;6.50;;
6249;SDS011;3158;52.148;11.568;2022-12-05T11:33:39;10.73;;;5.45;;
6249;SDS011;3158;52.148;11.568;2022-12-05T11:38:41;16.45;;;6.88;;
6249;SDS011;3158;52.148;11.568;2022-12-05T11:54:31;15.48;;;6.90;;
6249;SDS011;3158;52.148;11.568;2022-12-05T12:04:43;15.05;;;6.78;;
6249;SDS011;3158;52.148;11.568;2022-12-05T12:10:00;21.10;;;8.38;;
6249;SDS011;3158;52.148;11.568;2022-12-05T12:20:29;25.35;;;6.88;;
6249;SDS011;3158;52.148;11.568;2022-12-05T12:30:52;10.93;;;6.88;;
6249;SDS011;3158;52.148;11.568;2022-12-05T12:41:13;12.10;;;6.43;;
6249;SDS011;3158;52.148;11.568;2022-12-05T12:51:21;11.98;;;6.68;;
6249;SDS011;3158;52.148;11.568;2022-12-05T13:01:36;11.63;;;5.45;;
6249;SDS011;3158;52.148;11.568;2022-12-05T13:06:50;20.85;;;5.93;;
6249;SDS011;3158;52.148;11.568;2022-12-05T13:11:54;11.68;;;5.88;;
6249;SDS011;3158;52.148;11.568;2022-12-05T13:16:55;15.90;;;5.93;;
6249;SDS011;3158;52.148;11.568;2022-12-05T13:21:58;16.52;;;5.45;;
6249;SDS011;3158;52.148;11.568;2022-12-05T13:27:00;14.73;;;6.07;;
6249;SDS011;3158;52.148;11.568;2022-12-05T13:32:02;18.38;;;6.68;;
6249;SDS011;3158;52.148;11.568;2022-12-05T13:37:10;18.92;;;5.38;;
6249;SDS011;3158;52.148;11.568;2022-12-05T13:42:30;13.35;;;5.60;;
6249;SDS011;3158;52.148;11.568;2022-12-05T13:52:55;25.02;;;7.32;;
6249;SDS011;3158;52.148;11.568;2022-12-05T13:57:58;9.25;;;5.43;;
6249;SDS011;3158;52.148;11.568;2022-12-05T14:03:00;11.60;;;5.35;;
6249;SDS011;3158;52.148;11.568;2022-12-05T14:18:33;8.27;;;4.22;;
6249;SDS011;3158;52.148;11.568;2022-12-05T14:39:31;6.85;;;4.50;;
6249;SDS011;3158;52.148;11.568;2022-12-05T14:44:33;8.02;;;4.43;;
6249;SDS011;3158;52.148;11.568;2022-12-05T14:55:10;9.05;;;5.32;;
6249;SDS011;3158;52.148;11.568;2022-12-05T15:00:16;9.57;;;4.47;;
6249;SDS011;3158;52.148;11.568;2022-12-05T15:05:21;6.45;;;4.50;;
6249;SDS011;3158;52.148;11.568;2022-12-05T15:10:24;8.02;;;5.22;;
6249;SDS011;3158;52.148;11.568;2022-12-05T15:20:33;13.82;;;6.28;;
6249;SDS011;3158;52.148;11.568;2022-12-05T15:25:36;11.45;;;6.93;;
6249;SDS011;3158;52.148;11.568;2022-12-05T15:30:37;9.63;;;4.50;;
6249;SDS011;3158;52.148;11.568;2022-12-05T15:35:40;9.60;;;4.95;;
6249;SDS011;3158;52.148;11.568;2022-12-05T15:40:46;10.63;;;5.25;;
6249;SDS011;3158;52.148;11.568;2022-12-05T15:45:47;5.97;;;4.18;;
6249;SDS011;3158;52.148;11.568;2022-12-05T15:50:49;6.45;;;3.45;;
6249;SDS011;3158;52.148;11.568;2022-12-05T15:55:56;8.57;;;4.47;;
6249;SDS011;3158;52.148;11.568;2022-12-05T16:01:08;8.95;;;4.80;;
6249;SDS011;3158;52.148;11.568;2022-12-05T16:06:15;7.30;;;4.60;;
6249;SDS011;3158;52.148;11.568;2022-12-05T16:11:18;5.93;;;4.03;;
6249;SDS011;3158;52.148;11.568;2022-12-05T16:16:21;7.68;;;4.75;;
6249;SDS011;3158;52.148;11.568;2022-12-05T16:21:35;9.40;;;5.07;;
6249;SDS011;3158;52.148;11.568;2022-12-05T16:26:37;4.65;;;3.67;;
6249;SDS011;3158;52.148;11.568;2022-12-05T16:31:39;7.45;;;5.07;;
6249;SDS011;3158;52.148;11.568;2022-12-05T16:36:47;7.97;;;4.80;;
6249;SDS011;3158;52.148;11.568;2022-12-05T16:41:49;5.15;;;4.22;;
6249;SDS011;3158;52.148;11.568;2022-12-05T16:46:50;6.70;;;3.17;;
6249;SDS011;3158;52.148;11.568;2022-12-05T16:51:53;5.28;;;3.22;;
6249;SDS011;3158;52.148;11.568;2022-12-05T16:56:54;8.25;;;4.95;;
6249;SDS011;3158;52.148;11.568;2022-12-05T17:01:56;5.55;;;4.90;;
6249;SDS011;3158;52.148;11.568;2022-12-05T17:06:57;7.65;;;3.83;;
6249;SDS011;3158;52.148;11.568;2022-12-05T17:12:02;4.75;;;3.92;;
6249;SDS011;3158;52.148;11.568;2022-12-05T17:17:10;4.13;;;3.72;;
6249;SDS011;3158;52.148;11.568;2022-12-05T17:22:12;9.52;;;4.00;;
6249;SDS011;3158;52.148;11.568;2022-12-05T17:27:18;5.78;;;3.90;;
6249;SDS011;3158;52.148;11.568;2022-12-05T17:32:19;7.35;;;4.07;;
6249;SDS011;3158;52.148;11.568;2022-12-05T17:37:20;7.57;;;4.50;;
6249;SDS011;3158;52.148;11.568;2022-12-05T17:42:22;7.05;;;4.47;;
6249;SDS011;3158;52.148;11.568;2022-12-05T17:47:23;13.85;;;6.40;;
6249;SDS011;3158;52.148;11.568;2022-12-05T17:52:24;11.65;;;6.80;;
6249;SDS011;3158;52.148;11.568;2022-12-05T17:57:25;6.38;;;4.05;;
6249;SDS011;3158;52.148;11.568;2022-12-05T18:02:26;6.75;;;4.30;;
6249;SDS011;3158;52.148;11.568;2022-12-05T18:07:27;4.05;;;3.60;;
6249;SDS011;3158;52.148;11.568;2022-12-05T18:12:28;6.68;;;4.00;;
6249;SDS011;3158;52.148;11.568;2022-12-05T18:17:29;4.35;;;3.63;;
6249;SDS011;3158;52.148;11.568;2022-12-05T18:22:30;5.20;;;2.90;;
6249;SDS011;3158;52.148;11.568;2022-12-05T18:27:33;6.80;;;4.05;;
6249;SDS011;3158;52.148;11.568;2022-12-05T18:32:34;3.53;;;3.22;;
6249;SDS011;3158;52.148;11.568;2022-12-05T18:37:36;7.13;;;5.25;;
6249;SDS011;3158;52.148;11.568;2022-12-05T18:42:37;7.43;;;5.00;;
6249;SDS011;3158;52.148;11.568;2022-12-05T18:47:38;8.80;;;5.30;;
6249;SDS011;3158;52.148;11.568;2022-12-05T18:52:39;17.67;;;7.93;;
6249;SDS011;3158;52.148;11.568;2022-12-05T18:57:40;28.10;;;11.65;;
6249;SDS011;3158;52.148;11.568;2022-12-05T19:02:42;18.65;;;9.00;;
6249;SDS011;3158;52.148;11.568;2022-12-05T19:07:43;6.18;;;4.90;;
6249;SDS011;3158;52.148;11.568;2022-12-05T19:12:47;6.38;;;4.80;;
6249;SDS011;3158;52.148;11.568;2022-12-05T19:17:48;10.75;;;7.40;;
6249;SDS011;3158;52.148;11.568;2022-12-05T19:22:49;15.10;;;9.70;;
6249;SDS011;3158;52.148;11.568;2022-12-05T19:27:51;13.35;;;9.02;;
6249;SDS011;3158;52.148;11.568;2022-12-05T19:32:52;8.13;;;6.18;;
6249;SDS011;3158;52.148;11.568;2022-12-05T19:37:53;11.55;;;6.55;;
6249;SDS011;3158;52.148;11.568;2022-12-05T19:42:55;4.43;;;4.03;;
6249;SDS011;3158;52.148;11.568;2022-12-05T19:47:56;6.47;;;4.47;;
6249;SDS011;3158;52.148;11.568;2022-12-05T19:52:57;4.18;;;3.75;;
6249;SDS011;3158;52.148;11.568;2022-12-05T19:57:58;4.38;;;3.50;;
6249;SDS011;3158;52.148;11.568;2022-12-05T20:03:00;3.97;;;3.67;;
6249;SDS011;3158;52.148;11.568;2022-12-05T20:08:01;4.38;;;3.90;;
6249;SDS011;3158;52.148;11.568;2022-12-05T20:13:02;7.60;;;5.10;;
6249;SDS011;3158;52.148;11.568;2022-12-05T20:18:03;7.53;;;5.45;;
6249;SDS011;3158;52.148;11.568;2022-12-05T20:23:04;7.05;;;4.72;;
6249;SDS011;3158;52.148;11.568;2022-12-05T20:28:05;3.72;;;3.45;;
6249;SDS011;3158;52.148;11.568;2022-12-05T20:33:07;3.97;;;3.30;;
6249;SDS011;3158;52.148;11.568;2022-12-05T20:38:08;4.00;;;3.70;;
6249;SDS011;3158;52.148;11.568;2022-12-05T20:43:10;8.10;;;4.15;;
6249;SDS011;3158;52.148;11.568;2022-12-05T20:48:12;4.90;;;3.58;;
6249;SDS011;3158;52.148;11.568;2022-12-05T20:53:13;8.73;;;4.32;;
6249;SDS011;3158;52.148;11.568;2022-12-05T20:58:14;2.83;;;2.65;;
6249;SDS011;3158;52.148;11.568;2022-12-05T21:03:15;4.95;;;3.90;;
6249;SDS011;3158;52.148;11.568;2022-12-05T21:08:16;3.25;;;3.05;;
6249;SDS011;3158;52.148;11.568;2022-12-05T21:13:18;9.43;;;3.47;;
6249;SDS011;3158;52.148;11.568;2022-12-05T21:18:19;6.78;;;3.60;;
6249;SDS011;3158;52.148;11.568;2022-12-05T21:23:20;4.53;;;3.95;;
6249;SDS011;3158;52.148;11.568;2022-12-05T21:28:21;4.22;;;3.90;;
6249;SDS011;3158;52.148;11.568;2022-12-05T21:33:23;5.68;;;4.63;;
6249;SDS011;3158;52.148;11.568;2022-12-05T21:38:24;4.82;;;4.28;;
6249;SDS011;3158;52.148;11.568;2022-12-05T21:43:25;5.97;;;4.60;;
6249;SDS011;3158;52.148;11.568;2022-12-05T21:48:26;4.70;;;4.30;;
6249;SDS011;3158;52.148;11.568;2022-12-05T21:53:27;7.15;;;4.78;;
6249;SDS011;3158;52.148;11.568;2022-12-05T21:58:28;11.13;;;5.18;;
6249;SDS011;3158;52.148;11.568;2022-12-05T22:03:29;5.00;;;4.50;;
6249;SDS011;3158;52.148;11.568;2022-12-05T22:08:30;4.55;;;4.18;;
6249;SDS011;3158;52.148;11.568;2022-12-05T22:13:32;5.40;;;4.38;;
6249;SDS011;3158;52.148;11.568;2022-12-05T22:18:33;5.65;;;4.22;;
6249;SDS011;3158;52.148;11.568;2022-12-05T22:23:35;6.72;;;4.85;;
6249;SDS011;3158;52.148;11.568;2022-12-05T22:28:36;4.60;;;3.92;;
6249;SDS011;3158;52.148;11.568;2022-12-05T22:33:37;5.88;;;4.50;;
6249;SDS011;3158;52.148;11.568;2022-12-05T22:38:39;8.00;;;5.05;;
6249;SDS011;3158;52.148;11.568;2022-12-05T22:43:41;10.10;;;5.85;;
6249;SDS011;3158;52.148;11.568;2022-12-05T22:48:43;5.07;;;4.57;;
6249;SDS011;3158;52.148;11.568;2022-12-05T22:53:44;8.45;;;5.43;;
6249;SDS011;3158;52.148;11.568;2022-12-05T22:58:45;8.18;;;5.13;;
6249;SDS011;3158;52.148;11.568;2022-12-05T23:03:47;6.22;;;5.35;;
6249;SDS011;3158;52.148;11.568;2022-12-05T23:08:49;9.57;;;5.10;;
6249;SDS011;3158;52.148;11.568;2022-12-05T23:13:50;6.32;;;5.07;;
6249;SDS011;3158;52.148;11.568;2022-12-05T23:18:53;6.60;;;5.28;;
6249;SDS011;3158;52.148;11.568;2022-12-05T23:23:55;6.47;;;5.75;;
6249;SDS011;3158;52.148;11.568;2022-12-05T23:28:57;10.48;;;6.70;;
6249;SDS011;3158;52.148;11.568;2022-12-05T23:33:58;11.45;;;5.25;;
6249;SDS011;3158;52.148;11.568;2022-12-05T23:38:59;7.63;;;5.22;;
6249;SDS011;3158;52.148;11.568;2022-12-05T23:44:01;7.22;;;4.68;;
6249;SDS011;3158;52.148;11.568;2022-12-05T23:49:02;11.63;;;5.13;;
6249;SDS011;3158;52.148;11.568;2022-12-05T23:54:03;9.23;;;4.97;;
6249;SDS011;3158;52.148;11.568;2022-12-05T23:59:05;5.55;;;4.72;;
